sensor_id;sensor_type;location;lat;lon;timestamp;temperature;humidity
21246;DHT22;10781;50.928;4.440;2023-07-30T00:01:55;17.70;99.90
21246;DHT22;10781;50.928;4.440;2023-07-30T00:04:20;17.60;99.90
21246;DHT22;10781;50.928;4.440;2023-07-30T00:06:46;17.60;99.90
21246;DHT22;10781;50.928;4.440;2023-07-30T00:09:12;17.70;99.90
21246;DHT22;10781;50.928;4.440;2023-07-30T00:11:38;17.60;99.90
21246;DHT22;10781;50.928;4.440;2023-07-30T00:14:04;17.50;99.90
21246;DHT22;10781;50.928;4.440;2023-07-30T00:16:30;17.50;99.90
21246;DHT22;10781;50.928;4.440;2023-07-30T00:18:55;17.50;99.90
21246;DHT22;10781;50.928;4.440;2023-07-30T00:21:22;17.40;99.90
21246;DHT22;10781;50.928;4.440;2023-07-30T00:23:47;17.40;99.90
21246;DHT22;10781;50.928;4.440;2023-07-30T00:26:13;17.40;99.90
21246;DHT22;10781;50.928;4.440;2023-07-30T00:28:39;17.40;99.90
21246;DHT22;10781;50.928;4.440;2023-07-30T00:31:04;17.40;99.90
21246;DHT22;10781;50.928;4.440;2023-07-30T00:33:30;17.50;99.90
21246;DHT22;10781;50.928;4.440;2023-07-30T00:35:56;17.50;99.90
21246;DHT22;10781;50.928;4.440;2023-07-30T00:38:21;17.70;99.90
21246;DHT22;10781;50.928;4.440;2023-07-30T00:40:47;17.50;99.90
21246;DHT22;10781;50.928;4.440;2023-07-30T00:43:13;17.40;99.90
21246;DHT22;10781;50.928;4.440;2023-07-30T00:45:40;17.30;99.90
21246;DHT22;10781;50.928;4.440;2023-07-30T00:48:06;17.40;99.90
21246;DHT22;10781;50.928;4.440;2023-07-30T00:50:33;17.40;99.90
21246;DHT22;10781;50.928;4.440;2023-07-30T00:52:59;17.30;99.90
21246;DHT22;10781;50.928;4.440;2023-07-30T00:55:25;17.20;99.90
21246;DHT22;10781;50.928;4.440;2023-07-30T00:57:51;17.20;99.90
21246;DHT22;10781;50.928;4.440;2023-07-30T01:00:17;17.20;99.90
21246;DHT22;10781;50.928;4.440;2023-07-30T01:02:43;17.20;99.90
21246;DHT22;10781;50.928;4.440;2023-07-30T01:05:09;17.40;99.90
21246;DHT22;10781;50.928;4.440;2023-07-30T01:07:35;17.30;99.90
21246;DHT22;10781;50.928;4.440;2023-07-30T01:10:01;17.30;99.90
21246;DHT22;10781;50.928;4.440;2023-07-30T01:12:29;17.30;99.90
21246;DHT22;10781;50.928;4.440;2023-07-30T01:14:55;17.20;99.90
21246;DHT22;10781;50.928;4.440;2023-07-30T01:17:22;17.20;99.90
21246;DHT22;10781;50.928;4.440;2023-07-30T01:19:48;17.30;99.90
21246;DHT22;10781;50.928;4.440;2023-07-30T01:22:15;17.20;99.90
21246;DHT22;10781;50.928;4.440;2023-07-30T01:24:41;17.40;99.90
21246;DHT22;10781;50.928;4.440;2023-07-30T01:27:09;17.40;99.90
21246;DHT22;10781;50.928;4.440;2023-07-30T01:29:50;17.50;99.90
21246;DHT22;10781;50.928;4.440;2023-07-30T01:32:17;17.40;99.90
21246;DHT22;10781;50.928;4.440;2023-07-30T01:34:46;17.60;99.90
21246;DHT22;10781;50.928;4.440;2023-07-30T01:37:13;17.60;99.90
21246;DHT22;10781;50.928;4.440;2023-07-30T01:39:40;17.70;99.90
21246;DHT22;10781;50.928;4.440;2023-07-30T01:42:07;17.60;99.90
21246;DHT22;10781;50.928;4.440;2023-07-30T01:44:32;17.80;99.90
21246;DHT22;10781;50.928;4.440;2023-07-30T01:46:58;17.80;99.90
21246;DHT22;10781;50.928;4.440;2023-07-30T01:49:23;17.80;99.90
21246;DHT22;10781;50.928;4.440;2023-07-30T01:51:49;17.80;99.90
21246;DHT22;10781;50.928;4.440;2023-07-30T01:54:15;17.80;99.90
21246;DHT22;10781;50.928;4.440;2023-07-30T01:56:40;17.80;99.90
21246;DHT22;10781;50.928;4.440;2023-07-30T01:59:06;17.80;99.90
21246;DHT22;10781;50.928;4.440;2023-07-30T02:01:32;17.60;99.90
21246;DHT22;10781;50.928;4.440;2023-07-30T02:03:57;17.60;99.90
21246;DHT22;10781;50.928;4.440;2023-07-30T02:06:23;17.60;99.90
21246;DHT22;10781;50.928;4.440;2023-07-30T02:08:48;17.70;99.90
21246;DHT22;10781;50.928;4.440;2023-07-30T02:11:14;17.80;99.90
21246;DHT22;10781;50.928;4.440;2023-07-30T02:13:40;17.70;99.90
21246;DHT22;10781;50.928;4.440;2023-07-30T02:16:05;17.70;99.90
21246;DHT22;10781;50.928;4.440;2023-07-30T02:18:31;17.70;99.90
21246;DHT22;10781;50.928;4.440;2023-07-30T02:20:56;17.70;99.90
21246;DHT22;10781;50.928;4.440;2023-07-30T02:23:22;17.80;99.90
21246;DHT22;10781;50.928;4.440;2023-07-30T02:25:48;17.80;99.90
21246;DHT22;10781;50.928;4.440;2023-07-30T02:28:13;17.60;99.90
21246;DHT22;10781;50.928;4.440;2023-07-30T02:30:39;17.70;99.90
21246;DHT22;10781;50.928;4.440;2023-07-30T02:33:05;17.60;99.90
21246;DHT22;10781;50.928;4.440;2023-07-30T02:35:30;17.60;99.90
21246;DHT22;10781;50.928;4.440;2023-07-30T02:37:56;17.60;99.90
21246;DHT22;10781;50.928;4.440;2023-07-30T02:40:21;17.60;99.90
21246;DHT22;10781;50.928;4.440;2023-07-30T02:42:47;17.70;99.90
21246;DHT22;10781;50.928;4.440;2023-07-30T02:45:13;17.60;99.90
21246;DHT22;10781;50.928;4.440;2023-07-30T02:47:38;17.50;99.90
21246;DHT22;10781;50.928;4.440;2023-07-30T02:50:04;17.40;99.90
21246;DHT22;10781;50.928;4.440;2023-07-30T02:52:31;17.40;99.90
21246;DHT22;10781;50.928;4.440;2023-07-30T02:54:57;17.40;99.90
21246;DHT22;10781;50.928;4.440;2023-07-30T02:57:22;17.50;99.90
21246;DHT22;10781;50.928;4.440;2023-07-30T02:59:48;17.40;99.90
21246;DHT22;10781;50.928;4.440;2023-07-30T03:02:13;17.40;99.90
21246;DHT22;10781;50.928;4.440;2023-07-30T03:04:39;17.30;99.90
21246;DHT22;10781;50.928;4.440;2023-07-30T03:07:06;17.30;99.90
21246;DHT22;10781;50.928;4.440;2023-07-30T03:09:31;17.30;99.90
21246;DHT22;10781;50.928;4.440;2023-07-30T03:11:58;17.30;99.90
21246;DHT22;10781;50.928;4.440;2023-07-30T03:14:24;17.30;99.90
21246;DHT22;10781;50.928;4.440;2023-07-30T03:16:50;17.30;99.90
21246;DHT22;10781;50.928;4.440;2023-07-30T03:19:16;17.30;99.90
21246;DHT22;10781;50.928;4.440;2023-07-30T03:21:42;17.30;99.90
21246;DHT22;10781;50.928;4.440;2023-07-30T03:24:07;17.40;99.90
21246;DHT22;10781;50.928;4.440;2023-07-30T03:26:33;17.60;99.90
21246;DHT22;10781;50.928;4.440;2023-07-30T03:28:59;17.60;99.90
21246;DHT22;10781;50.928;4.440;2023-07-30T03:31:25;17.60;99.90
21246;DHT22;10781;50.928;4.440;2023-07-30T03:33:51;17.60;99.90
21246;DHT22;10781;50.928;4.440;2023-07-30T03:36:17;17.60;99.90
21246;DHT22;10781;50.928;4.440;2023-07-30T03:38:43;17.60;99.90
21246;DHT22;10781;50.928;4.440;2023-07-30T03:41:10;17.50;99.90
21246;DHT22;10781;50.928;4.440;2023-07-30T03:43:36;17.60;99.90
21246;DHT22;10781;50.928;4.440;2023-07-30T03:46:02;17.70;99.90
21246;DHT22;10781;50.928;4.440;2023-07-30T03:48:28;17.60;99.90
21246;DHT22;10781;50.928;4.440;2023-07-30T03:50:54;17.70;99.90
21246;DHT22;10781;50.928;4.440;2023-07-30T03:53:20;17.90;99.90
21246;DHT22;10781;50.928;4.440;2023-07-30T03:55:45;17.90;99.90
21246;DHT22;10781;50.928;4.440;2023-07-30T03:58:11;17.90;99.90
21246;DHT22;10781;50.928;4.440;2023-07-30T04:00:37;17.80;99.90
21246;DHT22;10781;50.928;4.440;2023-07-30T04:03:03;17.80;99.90
21246;DHT22;10781;50.928;4.440;2023-07-30T04:05:29;17.90;99.90
21246;DHT22;10781;50.928;4.440;2023-07-30T04:07:55;17.80;99.90
21246;DHT22;10781;50.928;4.440;2023-07-30T04:10:21;17.70;99.90
21246;DHT22;10781;50.928;4.440;2023-07-30T04:12:47;17.70;99.90
21246;DHT22;10781;50.928;4.440;2023-07-30T04:15:12;17.40;99.90
21246;DHT22;10781;50.928;4.440;2023-07-30T04:17:38;17.40;99.90
21246;DHT22;10781;50.928;4.440;2023-07-30T04:20:04;17.30;99.90
21246;DHT22;10781;50.928;4.440;2023-07-30T04:22:30;17.40;99.90
21246;DHT22;10781;50.928;4.440;2023-07-30T04:24:56;17.30;99.90
21246;DHT22;10781;50.928;4.440;2023-07-30T04:27:22;17.30;99.90
21246;DHT22;10781;50.928;4.440;2023-07-30T04:29:47;17.40;99.90
21246;DHT22;10781;50.928;4.440;2023-07-30T04:32:13;17.40;99.90
21246;DHT22;10781;50.928;4.440;2023-07-30T04:34:39;17.30;99.90
21246;DHT22;10781;50.928;4.440;2023-07-30T04:37:05;17.30;99.90
21246;DHT22;10781;50.928;4.440;2023-07-30T04:39:32;17.20;99.90
21246;DHT22;10781;50.928;4.440;2023-07-30T04:41:58;17.30;99.90
21246;DHT22;10781;50.928;4.440;2023-07-30T04:44:23;17.40;99.90
21246;DHT22;10781;50.928;4.440;2023-07-30T04:46:49;17.50;99.90
21246;DHT22;10781;50.928;4.440;2023-07-30T04:49:15;17.60;99.90
21246;DHT22;10781;50.928;4.440;2023-07-30T04:51:41;17.60;99.90
21246;DHT22;10781;50.928;4.440;2023-07-30T04:54:06;17.50;99.90
21246;DHT22;10781;50.928;4.440;2023-07-30T04:56:32;17.50;99.90
21246;DHT22;10781;50.928;4.440;2023-07-30T04:58:58;17.40;99.90
21246;DHT22;10781;50.928;4.440;2023-07-30T05:01:27;17.50;99.90
21246;DHT22;10781;50.928;4.440;2023-07-30T05:03:52;17.40;99.90
21246;DHT22;10781;50.928;4.440;2023-07-30T05:06:18;17.40;99.90
21246;DHT22;10781;50.928;4.440;2023-07-30T05:08:44;17.30;99.90
21246;DHT22;10781;50.928;4.440;2023-07-30T05:11:09;17.30;99.90
21246;DHT22;10781;50.928;4.440;2023-07-30T05:13:35;17.30;99.90
21246;DHT22;10781;50.928;4.440;2023-07-30T05:16:01;17.20;99.90
21246;DHT22;10781;50.928;4.440;2023-07-30T05:18:27;17.20;99.90
21246;DHT22;10781;50.928;4.440;2023-07-30T05:20:53;17.20;99.90
21246;DHT22;10781;50.928;4.440;2023-07-30T05:23:19;17.30;99.90
21246;DHT22;10781;50.928;4.440;2023-07-30T05:25:45;17.30;99.90
21246;DHT22;10781;50.928;4.440;2023-07-30T05:28:11;17.20;99.90
21246;DHT22;10781;50.928;4.440;2023-07-30T05:30:37;17.40;99.90
21246;DHT22;10781;50.928;4.440;2023-07-30T05:33:03;17.50;99.90
21246;DHT22;10781;50.928;4.440;2023-07-30T05:35:28;17.60;99.90
21246;DHT22;10781;50.928;4.440;2023-07-30T05:37:54;17.50;99.90
21246;DHT22;10781;50.928;4.440;2023-07-30T05:40:21;17.50;99.90
21246;DHT22;10781;50.928;4.440;2023-07-30T05:42:47;17.50;99.90
21246;DHT22;10781;50.928;4.440;2023-07-30T05:45:12;17.50;99.90
21246;DHT22;10781;50.928;4.440;2023-07-30T05:47:38;17.70;99.90
21246;DHT22;10781;50.928;4.440;2023-07-30T05:50:04;17.80;99.90
21246;DHT22;10781;50.928;4.440;2023-07-30T05:52:30;17.90;99.90
21246;DHT22;10781;50.928;4.440;2023-07-30T05:54:56;18.10;99.90
21246;DHT22;10781;50.928;4.440;2023-07-30T05:57:21;18.10;99.90
21246;DHT22;10781;50.928;4.440;2023-07-30T05:59:47;18.10;99.90
21246;DHT22;10781;50.928;4.440;2023-07-30T06:02:12;17.90;99.90
21246;DHT22;10781;50.928;4.440;2023-07-30T06:04:38;17.80;99.90
21246;DHT22;10781;50.928;4.440;2023-07-30T06:07:04;17.80;99.90
21246;DHT22;10781;50.928;4.440;2023-07-30T06:09:30;17.80;99.90
21246;DHT22;10781;50.928;4.440;2023-07-30T06:11:57;17.80;99.90
21246;DHT22;10781;50.928;4.440;2023-07-30T06:14:23;17.80;99.90
21246;DHT22;10781;50.928;4.440;2023-07-30T06:16:49;17.70;99.90
21246;DHT22;10781;50.928;4.440;2023-07-30T06:19:14;17.80;99.90
21246;DHT22;10781;50.928;4.440;2023-07-30T06:21:40;17.80;99.90
21246;DHT22;10781;50.928;4.440;2023-07-30T06:24:06;17.80;99.90
21246;DHT22;10781;50.928;4.440;2023-07-30T06:26:31;17.80;99.90
21246;DHT22;10781;50.928;4.440;2023-07-30T06:28:57;17.90;99.90
21246;DHT22;10781;50.928;4.440;2023-07-30T06:31:23;17.70;99.90
21246;DHT22;10781;50.928;4.440;2023-07-30T06:33:48;17.90;99.90
21246;DHT22;10781;50.928;4.440;2023-07-30T06:36:14;17.80;99.90
21246;DHT22;10781;50.928;4.440;2023-07-30T06:38:40;17.90;99.90
21246;DHT22;10781;50.928;4.440;2023-07-30T06:41:05;18.00;99.90
21246;DHT22;10781;50.928;4.440;2023-07-30T06:43:31;18.10;99.90
21246;DHT22;10781;50.928;4.440;2023-07-30T06:45:57;18.30;99.90
21246;DHT22;10781;50.928;4.440;2023-07-30T06:48:22;18.30;99.90
21246;DHT22;10781;50.928;4.440;2023-07-30T06:50:48;18.30;99.90
21246;DHT22;10781;50.928;4.440;2023-07-30T06:53:13;18.30;99.90
21246;DHT22;10781;50.928;4.440;2023-07-30T06:55:39;18.30;99.90
21246;DHT22;10781;50.928;4.440;2023-07-30T06:58:05;18.10;99.90
21246;DHT22;10781;50.928;4.440;2023-07-30T07:00:30;18.20;99.90
21246;DHT22;10781;50.928;4.440;2023-07-30T07:02:56;18.40;99.90
21246;DHT22;10781;50.928;4.440;2023-07-30T07:05:22;18.50;99.90
21246;DHT22;10781;50.928;4.440;2023-07-30T07:07:47;18.50;99.90
21246;DHT22;10781;50.928;4.440;2023-07-30T07:10:13;18.80;99.90
21246;DHT22;10781;50.928;4.440;2023-07-30T07:12:39;19.40;99.90
21246;DHT22;10781;50.928;4.440;2023-07-30T07:15:05;20.50;99.90
21246;DHT22;10781;50.928;4.440;2023-07-30T07:17:31;20.90;99.90
21246;DHT22;10781;50.928;4.440;2023-07-30T07:19:57;20.70;99.90
21246;DHT22;10781;50.928;4.440;2023-07-30T07:22:23;20.90;99.90
21246;DHT22;10781;50.928;4.440;2023-07-30T07:24:49;22.00;99.90
21246;DHT22;10781;50.928;4.440;2023-07-30T07:27:17;22.00;99.90
21246;DHT22;10781;50.928;4.440;2023-07-30T07:29:43;22.00;99.90
21246;DHT22;10781;50.928;4.440;2023-07-30T07:32:09;22.30;99.90
21246;DHT22;10781;50.928;4.440;2023-07-30T07:34:34;23.80;99.90
21246;DHT22;10781;50.928;4.440;2023-07-30T07:37:01;23.80;99.90
21246;DHT22;10781;50.928;4.440;2023-07-30T07:39:27;22.60;99.90
21246;DHT22;10781;50.928;4.440;2023-07-30T07:41:52;22.20;99.90
21246;DHT22;10781;50.928;4.440;2023-07-30T07:44:18;22.10;99.90
21246;DHT22;10781;50.928;4.440;2023-07-30T07:46:44;22.00;99.90
21246;DHT22;10781;50.928;4.440;2023-07-30T07:49:09;22.10;99.90
21246;DHT22;10781;50.928;4.440;2023-07-30T07:51:35;22.50;99.90
21246;DHT22;10781;50.928;4.440;2023-07-30T07:54:00;23.30;99.90
21246;DHT22;10781;50.928;4.440;2023-07-30T07:56:26;23.40;99.90
21246;DHT22;10781;50.928;4.440;2023-07-30T07:58:52;23.80;99.90
21246;DHT22;10781;50.928;4.440;2023-07-30T08:01:17;23.70;99.90
21246;DHT22;10781;50.928;4.440;2023-07-30T08:03:44;22.50;99.90
21246;DHT22;10781;50.928;4.440;2023-07-30T08:06:10;21.50;99.90
21246;DHT22;10781;50.928;4.440;2023-07-30T08:08:35;21.30;99.90
21246;DHT22;10781;50.928;4.440;2023-07-30T08:11:08;21.60;99.90
21246;DHT22;10781;50.928;4.440;2023-07-30T08:13:34;21.40;99.90
21246;DHT22;10781;50.928;4.440;2023-07-30T08:16:00;21.00;99.90
21246;DHT22;10781;50.928;4.440;2023-07-30T08:18:27;20.90;99.90
21246;DHT22;10781;50.928;4.440;2023-07-30T08:20:53;21.00;99.90
21246;DHT22;10781;50.928;4.440;2023-07-30T08:23:18;21.40;99.90
21246;DHT22;10781;50.928;4.440;2023-07-30T08:25:44;21.70;99.90
21246;DHT22;10781;50.928;4.440;2023-07-30T08:28:09;21.80;99.90
21246;DHT22;10781;50.928;4.440;2023-07-30T08:30:35;21.70;99.90
21246;DHT22;10781;50.928;4.440;2023-07-30T08:33:01;21.60;99.90
21246;DHT22;10781;50.928;4.440;2023-07-30T08:35:26;21.60;99.90
21246;DHT22;10781;50.928;4.440;2023-07-30T08:37:52;21.80;99.90
21246;DHT22;10781;50.928;4.440;2023-07-30T08:40:21;21.90;99.90
21246;DHT22;10781;50.928;4.440;2023-07-30T08:42:50;21.70;99.90
21246;DHT22;10781;50.928;4.440;2023-07-30T08:45:16;22.20;99.90
21246;DHT22;10781;50.928;4.440;2023-07-30T08:47:42;22.70;99.90
21246;DHT22;10781;50.928;4.440;2023-07-30T08:50:08;22.40;99.90
21246;DHT22;10781;50.928;4.440;2023-07-30T08:52:35;21.80;99.90
21246;DHT22;10781;50.928;4.440;2023-07-30T08:55:05;21.30;99.90
21246;DHT22;10781;50.928;4.440;2023-07-30T08:57:31;20.90;99.90
21246;DHT22;10781;50.928;4.440;2023-07-30T09:00:06;20.60;99.90
21246;DHT22;10781;50.928;4.440;2023-07-30T09:02:54;20.40;99.90
21246;DHT22;10781;50.928;4.440;2023-07-30T09:05:20;19.70;99.90
21246;DHT22;10781;50.928;4.440;2023-07-30T09:07:47;19.20;99.90
21246;DHT22;10781;50.928;4.440;2023-07-30T09:10:13;18.80;99.90
21246;DHT22;10781;50.928;4.440;2023-07-30T09:12:39;18.90;99.90
21246;DHT22;10781;50.928;4.440;2023-07-30T09:15:06;19.20;99.90
21246;DHT22;10781;50.928;4.440;2023-07-30T09:17:33;19.50;99.90
21246;DHT22;10781;50.928;4.440;2023-07-30T09:20:00;19.80;99.90
21246;DHT22;10781;50.928;4.440;2023-07-30T09:22:34;20.10;99.90
21246;DHT22;10781;50.928;4.440;2023-07-30T09:25:05;20.40;99.90
21246;DHT22;10781;50.928;4.440;2023-07-30T09:27:32;21.00;99.90
21246;DHT22;10781;50.928;4.440;2023-07-30T09:30:02;21.10;99.90
21246;DHT22;10781;50.928;4.440;2023-07-30T09:32:31;20.70;99.90
21246;DHT22;10781;50.928;4.440;2023-07-30T09:35:08;19.80;99.90
21246;DHT22;10781;50.928;4.440;2023-07-30T09:37:41;19.00;99.90
21246;DHT22;10781;50.928;4.440;2023-07-30T09:40:08;18.40;99.90
21246;DHT22;10781;50.928;4.440;2023-07-30T09:42:35;17.90;99.90
21246;DHT22;10781;50.928;4.440;2023-07-30T09:45:08;17.60;99.90
21246;DHT22;10781;50.928;4.440;2023-07-30T09:47:37;17.30;99.90
21246;DHT22;10781;50.928;4.440;2023-07-30T09:50:03;17.20;99.90
21246;DHT22;10781;50.928;4.440;2023-07-30T09:52:30;17.00;99.90
21246;DHT22;10781;50.928;4.440;2023-07-30T09:54:57;17.10;99.90
21246;DHT22;10781;50.928;4.440;2023-07-30T09:57:23;17.10;99.90
21246;DHT22;10781;50.928;4.440;2023-07-30T09:59:49;17.10;99.90
21246;DHT22;10781;50.928;4.440;2023-07-30T10:02:15;17.10;99.90
21246;DHT22;10781;50.928;4.440;2023-07-30T10:04:43;17.10;99.90
21246;DHT22;10781;50.928;4.440;2023-07-30T10:07:19;17.10;99.90
21246;DHT22;10781;50.928;4.440;2023-07-30T10:09:46;17.10;99.90
21246;DHT22;10781;50.928;4.440;2023-07-30T10:12:16;17.20;99.90
21246;DHT22;10781;50.928;4.440;2023-07-30T10:14:43;17.50;99.90
21246;DHT22;10781;50.928;4.440;2023-07-30T10:17:11;17.80;99.90
21246;DHT22;10781;50.928;4.440;2023-07-30T10:19:37;18.20;99.90
21246;DHT22;10781;50.928;4.440;2023-07-30T10:25:01;19.30;99.90
21246;DHT22;10781;50.928;4.440;2023-07-30T10:27:38;20.20;99.90
21246;DHT22;10781;50.928;4.440;2023-07-30T10:30:14;21.70;99.90
21246;DHT22;10781;50.928;4.440;2023-07-30T10:35:45;24.00;99.90
21246;DHT22;10781;50.928;4.440;2023-07-30T10:38:27;25.30;99.90
21246;DHT22;10781;50.928;4.440;2023-07-30T10:43:32;26.50;99.90
21246;DHT22;10781;50.928;4.440;2023-07-30T10:45:59;27.80;99.90
21246;DHT22;10781;50.928;4.440;2023-07-30T10:48:32;26.30;99.90
21246;DHT22;10781;50.928;4.440;2023-07-30T10:51:03;24.00;99.90
21246;DHT22;10781;50.928;4.440;2023-07-30T10:53:29;23.10;99.90
21246;DHT22;10781;50.928;4.440;2023-07-30T10:55:58;22.70;99.90
21246;DHT22;10781;50.928;4.440;2023-07-30T10:58:26;22.40;99.90
21246;DHT22;10781;50.928;4.440;2023-07-30T11:00:52;22.20;99.90
21246;DHT22;10781;50.928;4.440;2023-07-30T11:03:18;23.50;99.90
21246;DHT22;10781;50.928;4.440;2023-07-30T11:05:47;23.60;99.90
21246;DHT22;10781;50.928;4.440;2023-07-30T11:08:14;23.50;99.90
21246;DHT22;10781;50.928;4.440;2023-07-30T11:10:46;24.30;99.90
21246;DHT22;10781;50.928;4.440;2023-07-30T11:13:15;24.50;99.90
21246;DHT22;10781;50.928;4.440;2023-07-30T11:15:44;24.90;99.90
21246;DHT22;10781;50.928;4.440;2023-07-30T11:18:12;24.40;99.90
21246;DHT22;10781;50.928;4.440;2023-07-30T11:20:38;23.80;99.90
21246;DHT22;10781;50.928;4.440;2023-07-30T11:23:19;23.70;99.90
21246;DHT22;10781;50.928;4.440;2023-07-30T11:25:47;23.50;99.90
21246;DHT22;10781;50.928;4.440;2023-07-30T11:28:13;23.20;99.90
21246;DHT22;10781;50.928;4.440;2023-07-30T11:30:39;22.80;99.90
21246;DHT22;10781;50.928;4.440;2023-07-30T11:33:04;22.70;99.90
21246;DHT22;10781;50.928;4.440;2023-07-30T11:35:30;23.00;99.90
21246;DHT22;10781;50.928;4.440;2023-07-30T11:37:56;23.10;99.90
21246;DHT22;10781;50.928;4.440;2023-07-30T11:40:23;24.00;99.90
21246;DHT22;10781;50.928;4.440;2023-07-30T11:42:50;24.70;99.90
21246;DHT22;10781;50.928;4.440;2023-07-30T11:45:23;25.20;99.90
21246;DHT22;10781;50.928;4.440;2023-07-30T11:47:49;25.00;99.90
21246;DHT22;10781;50.928;4.440;2023-07-30T11:50:15;25.10;99.90
21246;DHT22;10781;50.928;4.440;2023-07-30T11:52:55;26.30;99.90
21246;DHT22;10781;50.928;4.440;2023-07-30T11:55:21;27.50;99.90
21246;DHT22;10781;50.928;4.440;2023-07-30T11:57:47;28.70;99.90
21246;DHT22;10781;50.928;4.440;2023-07-30T12:00:13;28.70;99.90
21246;DHT22;10781;50.928;4.440;2023-07-30T12:02:39;29.90;99.90
21246;DHT22;10781;50.928;4.440;2023-07-30T12:05:05;30.10;98.80
21246;DHT22;10781;50.928;4.440;2023-07-30T12:07:32;28.80;99.90
21246;DHT22;10781;50.928;4.440;2023-07-30T12:10:12;29.30;99.90
21246;DHT22;10781;50.928;4.440;2023-07-30T12:12:45;30.10;97.50
21246;DHT22;10781;50.928;4.440;2023-07-30T12:15:11;31.30;95.80
21246;DHT22;10781;50.928;4.440;2023-07-30T12:17:38;31.10;93.80
21246;DHT22;10781;50.928;4.440;2023-07-30T12:20:05;31.80;93.60
21246;DHT22;10781;50.928;4.440;2023-07-30T12:22:33;33.40;92.80
21246;DHT22;10781;50.928;4.440;2023-07-30T12:25:00;32.80;84.50
21246;DHT22;10781;50.928;4.440;2023-07-30T12:27:26;31.20;85.60
21246;DHT22;10781;50.928;4.440;2023-07-30T12:29:52;29.00;87.90
21246;DHT22;10781;50.928;4.440;2023-07-30T12:32:17;28.10;91.50
21246;DHT22;10781;50.928;4.440;2023-07-30T12:34:43;27.10;93.10
21246;DHT22;10781;50.928;4.440;2023-07-30T12:37:09;27.10;93.70
21246;DHT22;10781;50.928;4.440;2023-07-30T12:39:35;27.50;93.90
21246;DHT22;10781;50.928;4.440;2023-07-30T12:42:00;29.00;93.50
21246;DHT22;10781;50.928;4.440;2023-07-30T12:44:26;29.80;91.60
21246;DHT22;10781;50.928;4.440;2023-07-30T12:46:52;29.10;88.50
21246;DHT22;10781;50.928;4.440;2023-07-30T12:49:17;27.40;91.50
21246;DHT22;10781;50.928;4.440;2023-07-30T12:51:43;26.50;93.00
21246;DHT22;10781;50.928;4.440;2023-07-30T12:54:09;25.90;95.50
21246;DHT22;10781;50.928;4.440;2023-07-30T12:56:36;25.60;96.50
21246;DHT22;10781;50.928;4.440;2023-07-30T12:59:01;26.30;96.40
21246;DHT22;10781;50.928;4.440;2023-07-30T13:01:27;27.90;96.80
21246;DHT22;10781;50.928;4.440;2023-07-30T13:03:53;30.10;93.10
21246;DHT22;10781;50.928;4.440;2023-07-30T13:06:21;30.00;89.70
21246;DHT22;10781;50.928;4.440;2023-07-30T13:08:46;28.80;87.20
21246;DHT22;10781;50.928;4.440;2023-07-30T13:11:12;27.90;90.50
21246;DHT22;10781;50.928;4.440;2023-07-30T13:13:38;27.30;91.50
21246;DHT22;10781;50.928;4.440;2023-07-30T13:16:04;28.20;91.50
21246;DHT22;10781;50.928;4.440;2023-07-30T13:18:29;29.10;90.00
21246;DHT22;10781;50.928;4.440;2023-07-30T13:20:55;30.30;87.20
21246;DHT22;10781;50.928;4.440;2023-07-30T13:23:21;29.20;85.20
21246;DHT22;10781;50.928;4.440;2023-07-30T13:25:47;28.50;88.10
21246;DHT22;10781;50.928;4.440;2023-07-30T13:28:12;28.80;86.20
21246;DHT22;10781;50.928;4.440;2023-07-30T13:30:38;27.80;86.90
21246;DHT22;10781;50.928;4.440;2023-07-30T13:33:03;28.00;89.90
21246;DHT22;10781;50.928;4.440;2023-07-30T13:35:29;27.80;89.80
21246;DHT22;10781;50.928;4.440;2023-07-30T13:37:55;28.30;90.50
21246;DHT22;10781;50.928;4.440;2023-07-30T13:40:20;29.40;87.70
21246;DHT22;10781;50.928;4.440;2023-07-30T13:42:46;29.70;84.10
21246;DHT22;10781;50.928;4.440;2023-07-30T13:45:12;30.70;84.20
21246;DHT22;10781;50.928;4.440;2023-07-30T13:47:37;31.20;81.80
21246;DHT22;10781;50.928;4.440;2023-07-30T13:50:03;30.50;79.90
21246;DHT22;10781;50.928;4.440;2023-07-30T13:52:29;30.60;78.70
21246;DHT22;10781;50.928;4.440;2023-07-30T13:54:54;30.30;78.30
21246;DHT22;10781;50.928;4.440;2023-07-30T13:57:24;30.50;76.80
21246;DHT22;10781;50.928;4.440;2023-07-30T13:59:50;30.90;77.20
21246;DHT22;10781;50.928;4.440;2023-07-30T14:02:16;30.10;76.50
21246;DHT22;10781;50.928;4.440;2023-07-30T14:04:42;29.10;79.00
21246;DHT22;10781;50.928;4.440;2023-07-30T14:07:08;28.60;79.00
21246;DHT22;10781;50.928;4.440;2023-07-30T14:09:33;28.10;81.60
21246;DHT22;10781;50.928;4.440;2023-07-30T14:12:02;27.50;84.00
21246;DHT22;10781;50.928;4.440;2023-07-30T14:14:28;27.70;86.00
21246;DHT22;10781;50.928;4.440;2023-07-30T14:16:54;27.50;87.00
21246;DHT22;10781;50.928;4.440;2023-07-30T14:19:20;27.40;88.20
21246;DHT22;10781;50.928;4.440;2023-07-30T14:21:46;27.00;90.20
21246;DHT22;10781;50.928;4.440;2023-07-30T14:24:11;26.90;90.30
21246;DHT22;10781;50.928;4.440;2023-07-30T14:26:37;26.40;91.20
21246;DHT22;10781;50.928;4.440;2023-07-30T14:29:03;26.00;92.40
21246;DHT22;10781;50.928;4.440;2023-07-30T14:31:28;25.30;93.50
21246;DHT22;10781;50.928;4.440;2023-07-30T14:33:54;25.10;94.60
21246;DHT22;10781;50.928;4.440;2023-07-30T14:36:20;24.90;95.20
21246;DHT22;10781;50.928;4.440;2023-07-30T14:38:45;25.00;95.80
21246;DHT22;10781;50.928;4.440;2023-07-30T14:41:11;25.00;96.20
21246;DHT22;10781;50.928;4.440;2023-07-30T14:43:37;24.90;97.10
21246;DHT22;10781;50.928;4.440;2023-07-30T14:46:03;25.00;98.70
21246;DHT22;10781;50.928;4.440;2023-07-30T14:48:29;25.60;97.60
21246;DHT22;10781;50.928;4.440;2023-07-30T14:50:55;26.20;97.70
21246;DHT22;10781;50.928;4.440;2023-07-30T14:53:20;26.00;97.00
21246;DHT22;10781;50.928;4.440;2023-07-30T14:55:46;25.80;97.50
21246;DHT22;10781;50.928;4.440;2023-07-30T14:58:12;25.40;98.10
21246;DHT22;10781;50.928;4.440;2023-07-30T15:00:39;25.20;99.10
21246;DHT22;10781;50.928;4.440;2023-07-30T15:03:04;25.00;99.90
21246;DHT22;10781;50.928;4.440;2023-07-30T15:05:31;24.50;99.90
21246;DHT22;10781;50.928;4.440;2023-07-30T15:07:57;24.10;99.90
21246;DHT22;10781;50.928;4.440;2023-07-30T15:10:23;24.00;99.90
21246;DHT22;10781;50.928;4.440;2023-07-30T15:12:49;24.00;99.90
21246;DHT22;10781;50.928;4.440;2023-07-30T15:15:14;23.90;99.90
21246;DHT22;10781;50.928;4.440;2023-07-30T15:17:40;23.50;99.90
21246;DHT22;10781;50.928;4.440;2023-07-30T15:20:06;23.30;99.90
21246;DHT22;10781;50.928;4.440;2023-07-30T15:22:32;23.20;99.90
21246;DHT22;10781;50.928;4.440;2023-07-30T15:24:57;23.10;99.90
21246;DHT22;10781;50.928;4.440;2023-07-30T15:27:23;23.20;99.90
21246;DHT22;10781;50.928;4.440;2023-07-30T15:29:49;23.10;99.90
21246;DHT22;10781;50.928;4.440;2023-07-30T15:32:14;22.60;99.90
21246;DHT22;10781;50.928;4.440;2023-07-30T15:34:40;22.40;99.90